Time;durP1;ratioP1;P1;durP2;ratioP2;P2;SDS_P1;SDS_P2;PMS_P1;PMS_P2;Temp;Humidity;BMP_temperature;BMP_pressure;BME280_temperature;BME280_humidity;BME280_pressure;Samples;Min_cycle;Max_cycle;Signal;HPM_P1;HPM_P2
2021/05/11 00:01:11;;;;;;;;;;;;;;;7.60;100.00;97764.03;5092491;28;19920;-83
2021/05/11 00:03:38;;;;;;;;;;;;;;;7.54;100.00;97763.00;5074702;28;19990;-83
2021/05/11 00:06:04;;;;;;;;;;;;;;;7.57;100.00;97756.56;5068671;28;19920;-83
2021/05/11 00:08:31;;;;;;;;;;;;;;;7.69;100.00;97767.00;5092556;28;19920;-83
2021/05/11 00:10:58;;;;;;;;;;;;;;;7.77;100.00;97768.34;5062309;28;19920;-83
2021/05/11 00:13:25;;;;;;;;;;;;;;;7.71;100.00;97772.88;5080462;28;19919;-83
2021/05/11 00:15:51;;;;;;;;;;;;;;;7.65;100.00;97760.72;5093841;28;19927;-83
2021/05/11 00:18:18;;;;;;;;;;;;;;;7.38;100.00;97765.75;5078676;28;20382;-83
2021/05/11 00:20:45;;;;;;;;;;;;;;;7.26;100.00;97764.47;5055632;28;20054;-83
2021/05/11 00:23:22;;;;;;;;;;;;;;;7.23;100.00;97778.41;5071342;28;20257;-83
2021/05/11 00:25:53;;;;;;;;;;;;;;;7.14;100.00;97781.81;5099487;28;19972;-83
2021/05/11 00:28:19;;;;;;;;;;;;;;;7.20;100.00;97782.06;5058913;28;19920;-83
2021/05/11 00:30:46;;;;;;;;;;;;;;;7.26;100.00;97788.66;5075937;28;19927;-83
2021/05/11 00:33:13;;;;;;;;;;;;;;;7.32;100.00;97784.94;5091898;28;19924;-83
2021/05/11 00:35:40;;;;;;;;;;;;;;;7.35;100.00;97780.53;5095633;28;19920;-82
2021/05/11 00:38:06;;;;;;;;;;;;;;;7.38;100.00;97784.44;5079646;28;19928;-82
2021/05/11 00:40:33;;;;;;;;;;;;;;;7.40;100.00;97788.34;5091603;28;19927;-82
2021/05/11 00:43:00;;;;;;;;;;;;;;;7.30;100.00;97786.59;5063006;28;19985;-83
2021/05/11 00:45:26;;;;;;;;;;;;;;;7.27;100.00;97802.13;5092731;28;19920;-82
2021/05/11 00:47:53;;;;;;;;;;;;;;;7.30;100.00;97792.94;5077604;28;19931;-82
2021/05/11 00:50:20;;;;;;;;;;;;;;;7.30;100.00;97801.25;5060633;28;19921;-82
2021/05/11 00:52:46;;;;;;;;;;;;;;;7.34;100.00;97801.19;5121898;28;19920;-82
2021/05/11 00:55:13;;;;;;;;;;;;;;;7.31;100.00;97802.81;5086180;28;20023;-82
2021/05/11 00:57:40;;;;;;;;;;;;;;;7.35;100.00;97802.75;5078946;28;19920;-82
2021/05/11 01:00:08;;;;;;;;;;;;;;;7.31;100.00;97807.63;5046304;28;19956;-82
2021/05/11 01:02:35;;;;;;;;;;;;;;;7.35;100.00;97802.75;5071835;28;19947;-82
2021/05/11 01:05:03;;;;;;;;;;;;;;;7.29;100.00;97804.47;5095903;28;20355;-82
2021/05/11 01:07:30;;;;;;;;;;;;;;;7.20;100.00;97804.28;5096211;28;19920;-82
2021/05/11 01:09:57;;;;;;;;;;;;;;;7.20;100.00;97802.31;5080832;28;20010;-82
2021/05/11 01:12:24;;;;;;;;;;;;;;;7.12;100.00;97812.00;5095762;28;20293;-82
2021/05/11 01:14:52;;;;;;;;;;;;;;;7.05;100.00;97808.59;5123299;27;20372;-81
2021/05/11 01:17:30;;;;;;;;;;;;;;;7.06;100.00;97815.69;5076436;28;20497;-82
2021/05/11 01:20:00;;;;;;;;;;;;;;;7.13;100.00;97815.56;5082303;28;19969;-81
2021/05/11 01:25:03;;;;;;;;;;;;;;;7.16;100.00;97829.34;5075167;28;19921;-82
2021/05/11 02:24:36;;;;;;;;;;;;;;;6.37;100.00;97863.91;5075437;28;19927;-82
2021/05/11 02:27:04;;;;;;;;;;;;;;;6.37;100.00;97866.69;5075730;28;20378;-82
2021/05/11 02:29:31;;;;;;;;;;;;;;;6.40;100.00;97865.84;5090458;28;20062;-81
2021/05/11 02:31:58;;;;;;;;;;;;;;;6.41;100.00;97872.16;5074364;28;19920;-81
2021/05/11 02:34:24;;;;;;;;;;;;;;;6.39;100.00;97874.59;5075327;28;19970;-82
2021/05/11 02:36:51;;;;;;;;;;;;;;;6.37;100.00;97876.97;5074185;28;19927;-82
2021/05/11 02:39:18;;;;;;;;;;;;;;;6.32;100.00;97875.47;5074849;28;19927;-82
2021/05/11 02:41:45;;;;;;;;;;;;;;;6.37;100.00;97866.69;5107742;28;20376;-82
2021/05/11 02:44:15;;;;;;;;;;;;;;;6.34;100.00;97875.06;5090480;28;19920;-82
2021/05/11 02:46:42;;;;;;;;;;;;;;;6.31;100.00;97873.13;5074956;28;19990;-82
2021/05/11 02:49:10;;;;;;;;;;;;;;;6.28;100.00;97879.53;5073499;28;19920;-81
2021/05/11 02:51:37;;;;;;;;;;;;;;;6.29;100.00;97881.88;5074821;28;19927;-81
2021/05/11 02:54:03;;;;;;;;;;;;;;;6.33;100.00;97888.13;5074794;28;19924;-81
2021/05/11 02:56:30;;;;;;;;;;;;;;;6.34;100.00;97895.28;5107329;28;20372;-82
2021/05/11 02:58:56;;;;;;;;;;;;;;;6.38;100.00;97895.19;5107192;28;19924;-81
2021/05/11 03:01:23;;;;;;;;;;;;;;;6.33;100.00;97899.22;5073148;28;19962;-82
2021/05/11 03:03:50;;;;;;;;;;;;;;;6.37;100.00;97902.75;5073446;28;20284;-82
2021/05/11 03:06:16;;;;;;;;;;;;;;;6.36;100.00;97903.94;5074834;28;19920;-82
2021/05/11 03:08:44;;;;;;;;;;;;;;;6.35;100.00;97899.59;5074607;28;19925;-82
2021/05/11 03:11:11;;;;;;;;;;;;;;;6.34;100.00;97891.69;5090619;28;19924;-82
2021/05/11 03:13:37;;;;;;;;;;;;;;;6.39;100.00;97899.56;5073314;28;19920;-82
2021/05/11 03:16:04;;;;;;;;;;;;;;;6.39;100.00;97907.88;5056585;28;19920;-82
2021/05/11 03:18:31;;;;;;;;;;;;;;;6.26;100.00;97912.44;5072935;28;20334;-82
2021/05/11 03:20:57;;;;;;;;;;;;;;;6.28;100.00;97921.13;5073266;28;19926;-82
2021/05/11 03:23:24;;;;;;;;;;;;;;;6.31;100.00;97918.31;5074753;28;20333;-82
2021/05/11 03:25:51;;;;;;;;;;;;;;;6.30;100.00;97913.19;5090194;28;20272;-82
2021/05/11 03:28:17;;;;;;;;;;;;;;;6.28;100.00;97918.38;5074225;28;20576;-82
2021/05/11 03:30:44;;;;;;;;;;;;;;;6.31;100.00;97923.06;5102516;28;20291;-82
2021/05/11 03:33:11;;;;;;;;;;;;;;;6.26;100.00;97926.31;5067237;28;20386;-82
2021/05/11 03:35:38;;;;;;;;;;;;;;;6.20;100.00;97925.22;5066497;28;20314;-82
2021/05/11 03:38:06;;;;;;;;;;;;;;;6.16;100.00;97925.31;5074279;28;19920;-82
2021/05/11 03:40:33;;;;;;;;;;;;;;;6.16;100.00;97924.50;5072626;28;20322;-83
2021/05/11 03:43:37;;;;;;;;;;;;;;;6.20;100.00;97933.53;5074100;28;19920;-83
2021/05/11 03:45:59;;;;;;;;;;;;;;;6.14;100.00;97935.22;5071518;28;19917;-82
2021/05/11 03:48:26;;;;;;;;;;;;;;;6.22;100.00;97937.50;5089750;28;19921;-82
2021/05/11 03:50:53;;;;;;;;;;;;;;;6.21;100.00;97935.13;5072895;28;19924;-83
2021/05/11 03:53:20;;;;;;;;;;;;;;;6.12;100.00;97938.44;5074870;28;19920;-83
2021/05/11 03:55:51;;;;;;;;;;;;;;;6.08;100.00;97948.00;5106296;28;19921;-82
2021/05/11 03:58:18;;;;;;;;;;;;;;;6.14;100.00;97951.88;5073368;28;20380;-82
2021/05/11 04:00:45;;;;;;;;;;;;;;;6.08;100.00;97948.00;5074027;28;20267;-82
2021/05/11 04:03:12;;;;;;;;;;;;;;;6.06;100.00;97948.44;5074357;28;19966;-82
2021/05/11 04:05:39;;;;;;;;;;;;;;;6.08;100.00;97956.31;5073783;28;20374;-82
2021/05/11 04:08:06;;;;;;;;;;;;;;;6.08;100.00;97970.19;5106230;28;20348;-82
2021/05/11 04:10:40;;;;;;;;;;;;;;;6.01;100.00;97965.56;5073956;28;19928;-82
2021/05/11 04:18:28;;;;;;;;;;;;;;;6.05;100.00;97993.22;5073624;28;19920;-83
2021/05/11 04:20:55;;;;;;;;;;;;;;;6.08;100.00;98001.50;5055547;28;19970;-83
2021/05/11 04:23:23;;;;;;;;;;;;;;;6.04;100.00;98002.75;5072377;28;19924;-83
2021/05/11 04:25:50;;;;;;;;;;;;;;;6.10;100.00;98012.97;5072622;28;19920;-83
2021/05/11 04:28:17;;;;;;;;;;;;;;;6.09;100.00;98016.16;5060514;28;19921;-82
2021/05/11 04:30:45;;;;;;;;;;;;;;;6.12;100.00;98018.09;5073520;28;19927;-82
2021/05/11 04:33:12;;;;;;;;;;;;;;;6.13;100.00;98028.75;5062583;28;19928;-82
2021/05/11 04:35:39;;;;;;;;;;;;;;;6.13;100.00;98039.06;5093188;28;19920;-82
2021/05/11 04:38:07;;;;;;;;;;;;;;;6.22;100.00;98042.09;5077539;28;19920;-84
2021/05/11 04:40:35;;;;;;;;;;;;;;;6.25;100.00;98050.38;5059960;28;19920;-84
2021/05/11 04:43:04;;;;;;;;;;;;;;;6.28;100.00;98057.06;5109711;28;20031;-84
2021/05/11 04:45:34;;;;;;;;;;;;;;;6.28;100.00;98062.59;5077452;28;19927;-84
2021/05/11 04:48:01;;;;;;;;;;;;;;;6.33;100.00;98070.47;5059519;28;20035;-84
2021/05/11 04:50:28;;;;;;;;;;;;;;;6.41;100.00;98088.56;5077157;28;19924;-81
2021/05/11 04:52:56;;;;;;;;;;;;;;;6.51;100.00;98090.41;5092744;28;19920;-81
2021/05/11 04:55:23;;;;;;;;;;;;;;;6.59;100.00;98100.97;5076337;28;19932;-82
2021/05/11 04:57:51;;;;;;;;;;;;;;;6.59;100.00;98106.50;5093023;28;19928;-82
2021/05/11 05:00:19;;;;;;;;;;;;;;;6.63;100.00;98107.25;5076897;28;19921;-82
2021/05/11 05:02:47;;;;;;;;;;;;;;;6.69;100.00;98122.25;5076981;28;20443;-82
2021/05/11 05:05:15;;;;;;;;;;;;;;;6.70;100.00;98123.81;5076913;28;19927;-82
2021/05/11 05:07:42;;;;;;;;;;;;;;;6.78;100.00;98138.34;5075795;28;19920;-82
2021/05/11 05:10:09;;;;;;;;;;;;;;;6.81;100.00;98127.19;5098527;28;19920;-82
2021/05/11 05:12:37;;;;;;;;;;;;;;;6.82;100.00;98136.28;5075580;28;19977;-82
2021/05/11 05:15:04;;;;;;;;;;;;;;;6.88;100.00;98140.97;5109751;28;19926;-81
2021/05/11 05:17:32;;;;;;;;;;;;;;;6.87;100.00;98156.06;5109694;28;19920;-82
2021/05/11 05:20:02;;;;;;;;;;;;;;;6.92;100.00;98157.56;5075869;28;20406;-82
2021/05/11 05:22:30;;;;;;;;;;;;;;;7.01;100.00;98155.81;5094889;28;20005;-82
2021/05/11 05:24:59;;;;;;;;;;;;;;;7.07;100.00;98150.59;5076492;28;19920;-82
2021/05/11 05:27:38;;;;;;;;;;;;;;;7.07;100.00;98158.91;5077037;28;19951;-82
2021/05/11 05:30:05;;;;;;;;;;;;;;;7.07;100.00;98164.47;5108623;28;20443;-82
2021/05/11 05:32:32;;;;;;;;;;;;;;;6.94;100.00;98160.69;5094204;28;19921;-82
2021/05/11 05:34:59;;;;;;;;;;;;;;;6.96;100.00;98158.28;5075199;28;19920;-82
2021/05/11 05:37:27;;;;;;;;;;;;;;;6.94;100.00;98163.47;5075551;28;20260;-82
2021/05/11 05:40:00;;;;;;;;;;;;;;;7.06;100.00;98168.44;5075971;28;20437;-82
2021/05/11 05:42:27;;;;;;;;;;;;;;;7.10;100.00;98169.19;5108579;28;19920;-82
2021/05/11 05:44:54;;;;;;;;;;;;;;;7.07;100.00;98175.59;5074974;28;20023;-80
2021/05/11 05:47:23;;;;;;;;;;;;;;;7.27;100.00;98171.66;5067082;28;19920;-82
2021/05/11 05:49:58;;;;;;;;;;;;;;;7.35;100.00;98183.44;5076249;28;20003;-82
2021/05/11 05:52:34;;;;;;;;;;;;;;;7.50;100.00;98184.00;5078614;28;19920;-83
2021/05/11 05:55:02;;;;;;;;;;;;;;;7.69;100.00;98184.03;5106465;28;20356;-83
2021/05/11 05:57:29;;;;;;;;;;;;;;;7.74;100.00;98189.06;5074463;28;20372;-82
2021/05/11 05:59:56;;;;;;;;;;;;;;;7.85;100.00;98197.22;5058041;28;19920;-83
2021/05/11 06:02:24;;;;;;;;;;;;;;;7.94;100.00;98189.88;5108304;28;19920;-83
2021/05/11 06:04:51;;;;;;;;;;;;;;;8.31;100.00;98186.81;5074753;28;19921;-83
2021/05/11 06:07:18;;;;;;;;;;;;;;;8.71;100.00;98188.28;5075724;28;19921;-83
2021/05/11 06:09:45;;;;;;;;;;;;;;;9.52;100.00;98196.72;5108639;28;20260;-82
2021/05/11 06:12:30;;;;;;;;;;;;;;;10.15;100.00;98195.81;5074472;28;19920;-83
2021/05/11 06:17:34;;;;;;;;;;;;;;;10.16;100.00;98174.28;5075606;28;19920;-83
2021/05/11 06:20:02;;;;;;;;;;;;;;;9.99;100.00;98158.78;5107867;28;19920;-83
2021/05/11 06:22:29;;;;;;;;;;;;;;;9.91;100.00;98140.66;5073489;28;19921;-83
2021/05/11 06:24:56;;;;;;;;;;;;;;;9.25;100.00;98132.09;5057434;28;20018;-83
2021/05/11 06:27:23;;;;;;;;;;;;;;;8.78;100.00;98110.13;5082840;28;19994;-82
2021/05/11 06:29:56;;;;;;;;;;;;;;;9.29;100.00;98116.84;5080129;28;19969;-83
2021/05/11 06:32:25;;;;;;;;;;;;;;;9.60;100.00;98131.16;5058055;28;20035;-83
2021/05/11 06:34:59;;;;;;;;;;;;;;;9.42;100.00;98114.13;5061681;28;19920;-82
2021/05/11 06:37:26;;;;;;;;;;;;;;;9.43;100.00;98115.69;5075254;28;20448;-82
2021/05/11 06:39:56;;;;;;;;;;;;;;;10.04;100.00;98114.34;5073519;28;19921;-83
2021/05/11 06:42:24;;;;;;;;;;;;;;;9.86;100.00;98108.50;5074142;28;19920;-82
2021/05/11 06:55:14;;;;;;;;;;;;;;;8.31;100.00;98091.38;5073564;28;19942;-85
2021/05/11 06:57:41;;;;;;;;;;;;;;;8.16;100.00;98099.22;5066802;28;19921;-84
2021/05/11 07:00:09;;;;;;;;;;;;;;;7.97;100.00;98102.00;5056794;28;20283;-84
2021/05/11 07:02:36;;;;;;;;;;;;;;;7.80;100.00;98114.31;5106706;28;19927;-85
2021/05/11 07:05:03;;;;;;;;;;;;;;;7.92;100.00;98113.66;5068878;28;19927;-85
2021/05/11 07:07:31;;;;;;;;;;;;;;;8.03;100.00;98126.13;5072840;28;20011;-85
2021/05/11 07:10:17;;;;;;;;;;;;;;;8.01;100.00;98125.00;5073358;28;19924;-84
2021/05/11 07:15:30;;;;;;;;;;;;;;;8.14;100.00;98123.91;5073825;28;19928;-85
2021/05/11 07:18:07;;;;;;;;;;;;;;;8.26;100.00;98134.41;5040349;28;19943;-84
2021/05/11 07:20:35;;;;;;;;;;;;;;;8.14;100.00;98135.03;5074317;28;19924;-85
2021/05/11 07:23:02;;;;;;;;;;;;;;;8.15;100.00;98139.38;5067312;28;20015;-85
2021/05/11 07:28:36;;;;;;;;;;;;;;;8.05;100.00;98145.16;5105868;28;19924;-83
2021/05/11 07:31:04;;;;;;;;;;;;;;;8.25;100.00;98132.06;5072856;28;19978;-85
2021/05/11 07:33:39;;;;;;;;;;;;;;;8.12;100.00;98140.25;5053895;28;19926;-87
2021/05/11 07:36:06;;;;;;;;;;;;;;;8.06;100.00;98130.84;5086079;28;20566;-85
2021/05/11 07:38:34;;;;;;;;;;;;;;;7.76;100.00;98142.16;5080481;28;20269;-89
2021/05/11 07:41:03;;;;;;;;;;;;;;;7.77;100.00;98146.50;5061752;28;19924;-83
2021/05/11 07:43:32;;;;;;;;;;;;;;;7.60;100.00;98136.53;5043558;28;20442;-84
2021/05/11 07:52:19;;;;;;;;;;;;;;;7.72;100.00;98149.00;5064126;28;19995;-85
2021/05/11 08:15:41;;;;;;;;;;;;;;;8.22;100.00;98144.84;5097041;28;19978;-92
2021/05/11 08:19:01;;;;;;;;;;;;;;;8.45;100.00;98155.09;5071866;28;19927;-93
2021/05/11 08:29:17;;;;;;;;;;;;;;;8.33;100.00;98145.38;5063722;28;19924;-81
2021/05/11 08:31:44;;;;;;;;;;;;;;;8.72;100.00;98139.72;5072322;28;19945;-93
2021/05/11 08:34:12;;;;;;;;;;;;;;;8.86;100.00;98147.75;5073847;28;19920;-92
2021/05/11 08:36:40;;;;;;;;;;;;;;;8.67;100.00;98143.03;5071991;28;19920;-93
2021/05/11 08:39:07;;;;;;;;;;;;;;;9.26;100.00;98147.59;5073473;28;19995;-94
2021/05/11 08:41:34;;;;;;;;;;;;;;;9.60;100.00;98143.13;5037753;28;19920;-91
2021/05/11 08:44:03;;;;;;;;;;;;;;;8.89;100.00;98149.66;5069284;28;19920;-89
2021/05/11 08:46:30;;;;;;;;;;;;;;;9.12;100.00;98141.16;5069266;28;19928;-90
2021/05/11 08:49:03;;;;;;;;;;;;;;;9.18;100.00;98136.63;5069002;28;19928;-87
2021/05/11 08:51:39;;;;;;;;;;;;;;;9.53;100.00;98132.13;5070234;28;20390;-82
2021/05/11 09:27:14;;;;;;;;;;;;;;;10.48;100.00;98101.53;5091166;28;19920;-84
2021/05/11 09:32:26;;;;;;;;;;;;;;;10.78;100.00;98095.38;5072338;28;20017;-87
2021/05/11 10:44:31;;;;;;;;;;;;;;;12.56;100.00;98015.34;5076650;28;20054;-93
2021/05/11 10:47:02;;;;;;;;;;;;;;;12.66;100.00;98010.56;5084007;23;20016;-92
2021/05/11 10:49:33;;;;;;;;;;;;;;;12.89;100.00;98021.19;4997720;28;19929;-85
2021/05/11 10:52:03;;;;;;;;;;;;;;;12.73;100.00;98016.66;5003927;28;19929;-85
2021/05/11 10:54:37;;;;;;;;;;;;;;;12.26;100.00;98012.56;5023716;28;19930;-85
2021/05/11 10:57:55;;;;;;;;;;;;;;;11.91;100.00;98006.31;4989378;28;19930;-85
2021/05/11 11:03:15;;;;;;;;;;;;;;;12.34;100.00;98027.84;4931479;29;19953;-85
2021/05/11 11:05:55;;;;;;;;;;;;;;;12.04;100.00;98012.59;4919041;29;19922;-85
2021/05/11 11:08:26;;;;;;;;;;;;;;;12.42;100.00;98012.31;4934970;29;20013;-88
2021/05/11 11:11:03;;;;;;;;;;;;;;;12.90;100.00;98007.97;4918169;29;19922;-85
2021/05/11 11:13:32;;;;;;;;;;;;;;;12.86;100.00;98001.72;4917691;29;19929;-81
2021/05/11 11:16:00;;;;;;;;;;;;;;;13.24;100.00;97994.47;4951378;29;19989;-84
2021/05/11 11:18:27;;;;;;;;;;;;;;;13.17;100.00;97994.00;4950834;29;19922;-84
2021/05/11 11:23:53;;;;;;;;;;;;;;;12.68;100.00;98003.25;4950683;29;19922;-84
2021/05/11 11:26:24;;;;;;;;;;;;;;;12.98;100.00;97998.00;4934431;29;19922;-82
2021/05/11 11:29:08;;;;;;;;;;;;;;;13.61;100.00;97990.44;4934375;29;19933;-84
2021/05/11 11:31:38;;;;;;;;;;;;;;;13.09;100.00;97999.13;4974148;28;19926;-84
2021/05/11 11:34:15;;;;;;;;;;;;;;;12.93;100.00;98001.41;4975090;28;19928;-83
2021/05/11 11:37:01;;;;;;;;;;;;;;;12.52;100.00;97995.09;4991401;28;19925;-83
2021/05/11 11:39:29;;;;;;;;;;;;;;;13.14;100.00;97984.50;4987191;28;19933;-84
2021/05/11 11:41:58;;;;;;;;;;;;;;;13.78;100.00;97982.44;5006090;28;19922;-84
2021/05/11 11:44:28;;;;;;;;;;;;;;;14.19;100.00;97982.50;4990555;28;20037;-84
2021/05/11 11:47:11;;;;;;;;;;;;;;;14.31;100.00;97986.41;5001833;28;20281;-83
2021/05/11 11:49:42;;;;;;;;;;;;;;;14.28;100.00;97979.69;5011357;28;19928;-83
2021/05/11 11:52:20;;;;;;;;;;;;;;;14.32;100.00;97973.91;4993574;28;19921;-83
2021/05/11 12:00:14;;;;;;;;;;;;;;;14.40;100.00;97972.31;4995206;28;20265;-83
2021/05/11 12:02:51;;;;;;;;;;;;;;;14.45;100.00;97968.84;4996326;28;19971;-83
2021/05/11 12:05:20;;;;;;;;;;;;;;;14.97;100.00;97965.41;5003498;28;20060;-84
2021/05/11 12:07:58;;;;;;;;;;;;;;;14.99;100.00;97962.91;4977536;28;19921;-84
2021/05/11 12:10:26;;;;;;;;;;;;;;;14.95;100.00;97967.94;4994984;28;20017;-85
2021/05/11 12:12:54;;;;;;;;;;;;;;;14.62;100.00;97958.75;4980215;28;19928;-84
2021/05/11 12:15:21;;;;;;;;;;;;;;;14.61;100.00;97956.44;4996139;28;19921;-83
2021/05/11 12:18:19;;;;;;;;;;;;;;;14.61;100.00;97964.84;4964115;28;20365;-84
2021/05/11 12:21:00;;;;;;;;;;;;;;;14.58;100.00;97960.97;4973788;28;19932;-84
2021/05/11 12:23:27;;;;;;;;;;;;;;;14.77;100.00;97962.41;5003823;28;19921;-86
2021/05/11 12:25:57;;;;;;;;;;;;;;;14.83;100.00;97956.94;4986928;28;19921;-86
2021/05/11 12:28:33;;;;;;;;;;;;;;;14.54;100.00;97965.97;4996272;28;19944;-83
2021/05/11 12:31:01;;;;;;;;;;;;;;;13.96;100.00;97965.56;5009545;28;19921;-85
2021/05/11 12:33:39;;;;;;;;;;;;;;;14.18;100.00;97966.09;4984564;28;19921;-85
2021/05/11 12:36:21;;;;;;;;;;;;;;;14.15;100.00;97962.22;4979852;28;19960;-85
2021/05/11 12:38:49;;;;;;;;;;;;;;;14.32;100.00;97952.22;4993651;28;19922;-85
2021/05/11 12:41:29;;;;;;;;;;;;;;;13.82;100.00;97963.41;4994900;28;19925;-78
2021/05/11 12:43:57;;;;;;;;;;;;;;;13.95;100.00;97970.38;5003283;28;19949;-85
2021/05/11 12:46:27;;;;;;;;;;;;;;;13.63;100.00;97973.13;4960571;28;20292;-84
2021/05/11 12:49:00;;;;;;;;;;;;;;;13.45;100.00;97981.56;5003305;28;19929;-83
2021/05/11 12:51:31;;;;;;;;;;;;;;;13.37;100.00;97974.69;5015286;28;19929;-86
2021/05/11 12:54:02;;;;;;;;;;;;;;;13.12;100.00;97983.41;4999640;28;20690;-83
2021/05/11 12:56:47;;;;;;;;;;;;;;;12.51;100.00;98015.94;5000214;28;19921;-84
2021/05/11 13:09:21;;;;;;;;;;;;;;;10.22;100.00;98060.84;4983136;28;19921;-86
2021/05/11 13:13:55;;;;;;;;;;;;;;;9.97;100.00;98077.50;4983148;28;20373;-84
2021/05/11 13:27:31;;;;;;;;;;;;;;;9.18;100.00;98074.50;5013248;28;19922;-86
2021/05/11 13:35:16;;;;;;;;;;;;;;;8.76;100.00;98095.09;4984249;28;19929;-87
2021/05/11 13:37:43;;;;;;;;;;;;;;;8.63;100.00;98097.78;4978417;28;21312;-86
2021/05/11 13:40:11;;;;;;;;;;;;;;;8.61;100.00;98089.09;4978559;28;19921;-85
2021/05/11 13:42:38;;;;;;;;;;;;;;;8.54;100.00;98083.66;4994743;28;20392;-85
2021/05/11 13:45:06;;;;;;;;;;;;;;;8.59;100.00;98080.38;4962617;28;19921;-86
2021/05/11 13:47:33;;;;;;;;;;;;;;;8.55;100.00;98079.69;4957865;28;19932;-84
2021/05/11 13:50:03;;;;;;;;;;;;;;;8.73;100.00;98085.59;4992929;28;19944;-82
2021/05/11 13:52:32;;;;;;;;;;;;;;;8.78;100.00;98082.28;4963197;28;19922;-82
2021/05/11 13:55:11;;;;;;;;;;;;;;;8.75;100.00;98082.38;4992102;28;19929;-82
2021/05/11 14:03:37;;;;;;;;;;;;;;;8.40;100.00;98089.59;4975563;28;19926;-82
2021/05/11 14:06:04;;;;;;;;;;;;;;;8.44;100.00;98090.28;5007694;28;19944;-84
2021/05/11 14:08:32;;;;;;;;;;;;;;;8.35;100.00;98098.44;4981472;28;19964;-86
2021/05/11 14:10:59;;;;;;;;;;;;;;;8.33;100.00;98098.06;5010971;28;19933;-86
2021/05/11 14:13:26;;;;;;;;;;;;;;;8.43;100.00;98088.72;5012269;28;19921;-86
2021/05/11 14:16:19;;;;;;;;;;;;;;;8.58;100.00;98081.59;5031388;28;19921;-85
2021/05/11 14:18:46;;;;;;;;;;;;;;;8.74;100.00;98080.81;5012811;28;20359;-84
2021/05/11 14:21:13;;;;;;;;;;;;;;;8.98;100.00;98071.84;5011093;28;19925;-85
2021/05/11 14:23:44;;;;;;;;;;;;;;;9.13;100.00;98052.78;4997411;28;19928;-86
2021/05/11 14:26:12;;;;;;;;;;;;;;;9.31;100.00;98046.72;4995186;28;19925;-83
2021/05/11 14:28:40;;;;;;;;;;;;;;;9.49;100.00;98030.28;5014379;28;19975;-85
2021/05/11 14:31:07;;;;;;;;;;;;;;;9.46;100.00;97998.50;4995578;28;19921;-84
2021/05/11 14:33:34;;;;;;;;;;;;;;;9.42;100.00;97997.03;5012128;28;20007;-85
2021/05/11 14:36:01;;;;;;;;;;;;;;;9.61;100.00;98015.59;5012457;28;19983;-84
2021/05/11 14:38:29;;;;;;;;;;;;;;;9.48;100.00;98012.75;5012935;28;19934;-84
2021/05/11 14:41:02;;;;;;;;;;;;;;;9.47;100.00;98016.00;4994585;28;20020;-84
2021/05/11 14:43:33;;;;;;;;;;;;;;;9.62;100.00;98025.53;4994592;28;19960;-84
2021/05/11 14:46:00;;;;;;;;;;;;;;;9.62;100.00;98023.53;4994649;28;19928;-85
2021/05/11 14:48:30;;;;;;;;;;;;;;;9.74;100.00;98027.59;5008722;28;19928;-87
2021/05/11 14:50:57;;;;;;;;;;;;;;;9.99;100.00;98030.41;4993846;28;19928;-88
2021/05/11 14:53:25;;;;;;;;;;;;;;;10.05;100.00;98026.63;5010690;28;19925;-86
2021/05/11 14:55:52;;;;;;;;;;;;;;;10.32;100.00;98032.59;4985528;28;20016;-86
2021/05/11 14:58:30;;;;;;;;;;;;;;;10.36;100.00;98024.88;4994934;28;19972;-85
2021/05/11 15:00:58;;;;;;;;;;;;;;;10.68;100.00;98026.66;5010693;28;19925;-85
2021/05/11 15:03:25;;;;;;;;;;;;;;;10.58;100.00;98022.19;4994187;28;19936;-85
2021/05/11 15:06:07;;;;;;;;;;;;;;;10.74;100.00;98030.44;5011517;28;19976;-89
2021/05/11 15:08:34;;;;;;;;;;;;;;;10.96;100.00;98036.91;5007843;28;19929;-88
2021/05/11 15:11:02;;;;;;;;;;;;;;;10.80;100.00;98037.03;5012454;28;19922;-91
2021/05/11 15:13:29;;;;;;;;;;;;;;;11.23;100.00;98027.97;5013543;28;20051;-93
2021/05/11 15:15:58;;;;;;;;;;;;;;;11.24;100.00;98027.53;5012742;28;20281;-89
2021/05/11 15:18:26;;;;;;;;;;;;;;;11.47;100.00;98026.31;4994033;28;20004;-90
2021/05/11 15:20:54;;;;;;;;;;;;;;;11.61;100.00;98009.81;4993468;28;20004;-90
2021/05/11 15:23:21;;;;;;;;;;;;;;;11.55;100.00;98006.03;4994340;28;20272;-86
2021/05/11 15:25:52;;;;;;;;;;;;;;;11.94;100.00;97994.19;5011386;28;19928;-84
2021/05/11 15:28:20;;;;;;;;;;;;;;;12.02;100.00;98001.09;4994273;28;19922;-83
2021/05/11 15:30:47;;;;;;;;;;;;;;;11.86;100.00;98012.50;5007909;28;20016;-83
2021/05/11 15:33:14;;;;;;;;;;;;;;;12.16;100.00;97989.31;5018132;28;19925;-82
2021/05/11 15:35:42;;;;;;;;;;;;;;;12.30;100.00;97985.97;4997198;28;20337;-82
2021/05/11 15:38:10;;;;;;;;;;;;;;;12.40;100.00;97981.19;4994469;28;20016;-84
2021/05/11 15:40:38;;;;;;;;;;;;;;;12.20;100.00;97976.00;4990680;28;19921;-83
2021/05/11 15:43:06;;;;;;;;;;;;;;;11.64;100.00;97966.97;4992015;28;19928;-84
2021/05/11 15:45:34;;;;;;;;;;;;;;;11.64;100.00;97964.19;5011469;28;19925;-83
2021/05/11 15:48:03;;;;;;;;;;;;;;;12.13;100.00;97962.25;4993290;28;19948;-83
2021/05/11 15:50:31;;;;;;;;;;;;;;;12.26;100.00;97960.16;4996947;28;19921;-82
2021/05/11 15:53:02;;;;;;;;;;;;;;;12.27;100.00;97956.09;5007902;28;19929;-84
2021/05/11 15:55:31;;;;;;;;;;;;;;;12.53;100.00;97954.63;5018714;28;19922;-82
2021/05/11 15:57:59;;;;;;;;;;;;;;;12.61;100.00;97964.31;5004682;28;20000;-82
2021/05/11 16:00:26;;;;;;;;;;;;;;;12.03;100.00;97969.06;4979384;28;20353;-78
2021/05/11 16:02:54;;;;;;;;;;;;;;;12.01;100.00;97957.53;5008842;28;20020;-79
2021/05/11 16:05:22;;;;;;;;;;;;;;;12.29;100.00;97964.81;5003475;28;20072;-84
2021/05/11 16:07:50;;;;;;;;;;;;;;;12.46;100.00;97963.31;5010479;28;19944;-85
2021/05/11 16:10:18;;;;;;;;;;;;;;;12.17;100.00;97957.31;5009597;28;19928;-84
2021/05/11 16:12:46;;;;;;;;;;;;;;;11.83;100.00;97948.28;4993288;28;19926;-85
2021/05/11 16:15:15;;;;;;;;;;;;;;;12.10;100.00;97937.97;4990302;28;19960;-84
2021/05/11 16:17:42;;;;;;;;;;;;;;;12.32;100.00;97947.09;5010939;28;20415;-84
2021/05/11 16:20:10;;;;;;;;;;;;;;;12.20;100.00;97942.38;5010973;28;20609;-86
2021/05/11 16:22:38;;;;;;;;;;;;;;;11.95;100.00;97941.81;4993125;28;19921;-84
2021/05/11 16:25:07;;;;;;;;;;;;;;;12.13;100.00;97941.88;5010287;28;20409;-82
2021/05/11 16:27:34;;;;;;;;;;;;;;;12.12;100.00;97943.91;4991417;28;19933;-85
2021/05/11 16:30:10;;;;;;;;;;;;;;;12.12;100.00;97948.72;4981893;28;19928;-83
2021/05/11 16:32:37;;;;;;;;;;;;;;;12.18;100.00;97947.66;5017249;28;20563;-83
2021/05/11 16:35:05;;;;;;;;;;;;;;;12.13;100.00;97955.88;4967702;28;19929;-84
2021/05/11 16:37:32;;;;;;;;;;;;;;;12.27;100.00;97950.50;5016255;28;19925;-84
2021/05/11 16:40:00;;;;;;;;;;;;;;;12.03;100.00;97949.47;5008211;28;19921;-84
2021/05/11 16:42:27;;;;;;;;;;;;;;;11.90;100.00;97950.78;5008833;28;19983;-81
2021/05/11 16:44:54;;;;;;;;;;;;;;;12.11;100.00;97964.75;5000167;28;19932;-82
2021/05/11 16:47:22;;;;;;;;;;;;;;;12.28;100.00;97963.25;5020739;28;19998;-83
2021/05/11 16:49:49;;;;;;;;;;;;;;;12.31;100.00;97962.31;4999997;28;20484;-85
2021/05/11 16:52:17;;;;;;;;;;;;;;;11.79;100.00;97954.00;5017253;28;19928;-83
2021/05/11 16:54:44;;;;;;;;;;;;;;;11.62;100.00;97949.84;4983418;28;19932;-82
2021/05/11 16:57:13;;;;;;;;;;;;;;;11.42;100.00;97952.16;4988494;28;20297;-82
2021/05/11 16:59:40;;;;;;;;;;;;;;;11.28;100.00;97966.69;5016724;28;20043;-82
2021/05/11 17:02:08;;;;;;;;;;;;;;;11.22;100.00;97960.13;5016006;28;20000;-83
2021/05/11 17:04:35;;;;;;;;;;;;;;;11.18;100.00;97967.84;5017422;28;19921;-85
2021/05/11 17:07:02;;;;;;;;;;;;;;;11.10;100.00;97971.34;4999626;28;19925;-88
2021/05/11 17:09:48;;;;;;;;;;;;;;;11.15;100.00;97993.91;4984488;28;19972;-88
2021/05/11 17:12:16;;;;;;;;;;;;;;;11.28;100.00;98025.41;5016576;28;19928;-87
2021/05/11 17:14:43;;;;;;;;;;;;;;;10.62;100.00;98022.84;4983179;28;20359;-86
2021/05/11 17:17:10;;;;;;;;;;;;;;;9.95;100.00;98019.34;5016501;28;19921;-87
2021/05/11 17:19:37;;;;;;;;;;;;;;;9.16;100.00;98013.66;4986788;28;19922;-86
2021/05/11 17:22:04;;;;;;;;;;;;;;;8.64;100.00;98020.59;5015414;28;19925;-85
2021/05/11 17:24:31;;;;;;;;;;;;;;;8.15;100.00;98014.19;4999417;28;19974;-89